Terminal Aerodrome Forecast
Issued by NWS Wakefield, VA

Home | Current Version | Previous Version | Text Only | Print | Product List | Glossary On
Versions: 1 2 3 4 5 6 7 8 9 10 11 12 13 14 15 16
000
FTUS41 KAKQ 032338
TAFRIC
TAF
KRIC 032338Z 0400/0424 10006KT P6SM -RA BKN045 BKN100 OVC250
      TEMPO 0401/0404 2SM RA BR SCT020 OVC030
     FM040400 10005KT 4SM -RA BR SCT009 BKN020 OVC040
     FM040700 VRB04KT 2SM -RA BR OVC007
     FM041400 25012KT P6SM -RA BKN020 BKN050=

USA.gov is the U.S. government's official web portal to all federal, state and local government web resources and services.